Time;durP1;ratioP1;P1;durP2;ratioP2;P2;SDS_P1;SDS_P2;PMS_P1;PMS_P2;Temp;Humidity;BMP_temperature;BMP_pressure;BME280_temperature;BME280_humidity;BME280_pressure;Samples;Min_cycle;Max_cycle;Signal;HPM_P1;HPM_P2
2023/10/23 00:01:36;;;;;;;24.17;6.75;;;;;;;19.00;76.17;95145.44;5103307;28;20201;-65
2023/10/23 00:04:02;;;;;;;18.52;6.60;;;;;;;18.97;76.00;95143.06;5089178;28;20203;-65
2023/10/23 00:06:30;;;;;;;26.55;7.95;;;;;;;19.01;76.36;95141.94;5102664;28;20698;-65
2023/10/23 00:08:57;;;;;;;15.43;6.38;;;;;;;19.00;76.17;95148.00;5102816;28;20211;-66
2023/10/23 00:11:24;;;;;;;17.42;5.63;;;;;;;19.06;76.31;95145.94;5102408;28;20223;-65
2023/10/23 00:13:51;;;;;;;19.80;6.82;;;;;;;19.01;76.69;95144.50;5103124;28;20205;-64
2023/10/23 00:16:18;;;;;;;16.70;6.32;;;;;;;19.10;76.36;95152.53;5102349;28;20217;-64
2023/10/23 00:18:45;;;;;;;19.20;6.47;;;;;;;19.13;76.36;95153.16;5100039;28;20273;-66
2023/10/23 00:21:13;;;;;;;24.60;7.18;;;;;;;19.00;76.62;95149.75;5102384;28;20236;-65
2023/10/23 00:23:41;;;;;;;21.00;7.05;;;;;;;18.92;77.02;95152.00;5101254;28;20267;-64
2023/10/23 00:26:08;;;;;;;24.08;6.68;;;;;;;18.86;77.21;95153.19;5103477;28;20232;-64
2023/10/23 00:28:35;;;;;;;26.50;8.15;;;;;;;18.82;77.50;95144.03;5103180;28;20461;-64
2023/10/23 00:31:02;;;;;;;26.95;6.60;;;;;;;18.84;77.37;95155.06;5103321;28;20248;-63
2023/10/23 00:33:28;;;;;;;26.10;7.60;;;;;;;18.73;77.87;95154.94;5100930;28;20204;-64
2023/10/23 00:35:55;;;;;;;26.88;6.72;;;;;;;18.84;77.58;95165.34;5101394;28;20220;-65
2023/10/23 00:38:22;;;;;;;12.48;6.05;;;;;;;18.73;77.75;95156.69;5101392;28;20225;-65
2023/10/23 00:40:50;;;;;;;18.77;5.55;;;;;;;18.75;77.85;95154.84;5102756;28;20269;-64
2023/10/23 00:43:19;;;;;;;26.25;6.90;;;;;;;18.75;77.81;95135.06;5102568;28;20265;-64
2023/10/23 00:45:51;;;;;;;19.45;7.28;;;;;;;18.81;77.77;95138.97;5102542;28;20286;-65
2023/10/23 00:48:20;;;;;;;14.23;6.25;;;;;;;18.77;78.14;95142.69;5100594;28;20351;-65
2023/10/23 00:50:48;;;;;;;28.45;6.63;;;;;;;18.93;77.65;95144.16;5100278;28;20323;-65
2023/10/23 00:53:14;;;;;;;19.15;7.10;;;;;;;18.82;77.76;95149.16;5100864;28;20266;-65
2023/10/23 00:55:41;;;;;;;20.88;6.88;;;;;;;18.59;78.83;95149.78;5101795;28;20267;-65
2023/10/23 00:58:09;;;;;;;22.33;7.30;;;;;;;18.49;79.25;95143.59;5100641;28;20231;-65
2023/10/23 01:00:37;;;;;;;22.90;7.45;;;;;;;18.52;79.22;95145.97;5098835;28;20285;-64
2023/10/23 01:03:04;;;;;;;24.05;7.32;;;;;;;18.25;80.65;95141.63;5098047;28;20211;-63
2023/10/23 01:05:31;;;;;;;17.58;6.32;;;;;;;18.28;80.71;95144.03;5098762;28;20225;-65
2023/10/23 01:07:58;;;;;;;20.35;7.53;;;;;;;18.32;80.37;95145.47;5100837;28;20237;-64
2023/10/23 01:10:25;;;;;;;27.20;7.25;;;;;;;18.23;80.34;95143.47;5098062;28;20197;-65
2023/10/23 01:12:53;;;;;;;16.98;7.10;;;;;;;18.40;79.87;95144.16;5099854;28;20663;-65
2023/10/23 01:15:22;;;;;;;26.40;8.23;;;;;;;18.60;78.84;95146.31;5101217;28;20760;-64
2023/10/23 01:17:49;;;;;;;15.20;6.95;;;;;;;18.51;78.79;95131.44;5100946;28;20228;-65
2023/10/23 01:20:18;;;;;;;17.23;6.82;;;;;;;18.59;78.85;95142.06;5101204;28;20197;-65
2023/10/23 01:22:45;;;;;;;18.55;7.15;;;;;;;18.50;78.93;95145.25;5102075;28;20310;-65
2023/10/23 01:25:15;;;;;;;25.70;6.90;;;;;;;18.62;78.61;95139.34;5102142;28;20635;-66
2023/10/23 01:27:42;;;;;;;23.92;7.22;;;;;;;18.63;78.18;95138.41;5102759;28;20503;-65
2023/10/23 01:30:09;;;;;;;21.30;7.93;;;;;;;18.72;77.98;95139.59;5098798;28;20194;-64
2023/10/23 01:32:36;;;;;;;18.75;7.10;;;;;;;18.75;77.77;95140.22;5101236;28;20285;-65
2023/10/23 01:35:03;;;;;;;25.23;7.68;;;;;;;18.63;78.54;95136.66;5101401;28;20220;-65
2023/10/23 01:37:30;;;;;;;18.58;6.47;;;;;;;18.79;77.82;95136.53;5101590;28;20224;-65
2023/10/23 01:39:56;;;;;;;15.88;7.30;;;;;;;18.84;77.54;95133.63;5101216;28;21807;-65
2023/10/23 01:42:28;;;;;;;16.50;7.13;;;;;;;18.91;77.15;95135.72;5102548;28;20874;-65
2023/10/23 01:44:55;;;;;;;23.55;8.20;;;;;;;18.72;77.44;95135.25;5104481;28;20289;-62
2023/10/23 01:47:22;;;;;;;25.52;7.30;;;;;;;18.82;77.03;95135.47;5106714;28;20189;-65
2023/10/23 01:49:49;;;;;;;28.15;8.30;;;;;;;18.80;77.27;95138.19;5103869;28;20213;-66
2023/10/23 01:52:15;;;;;;;19.92;6.72;;;;;;;18.67;77.58;95142.44;5106178;28;20237;-64
2023/10/23 01:54:43;;;;;;;16.83;6.45;;;;;;;18.62;77.92;95144.47;5105337;28;20297;-65
2023/10/23 01:57:09;;;;;;;22.02;8.45;;;;;;;18.63;77.78;95146.13;5106430;28;20744;-64
2023/10/23 01:59:38;;;;;;;23.48;7.22;;;;;;;18.66;77.54;95139.03;5104720;28;20201;-66
2023/10/23 02:02:05;;;;;;;15.00;6.50;;;;;;;18.58;77.64;95143.00;5106911;28;20200;-66
2023/10/23 02:04:33;;;;;;;21.98;7.35;;;;;;;18.61;77.63;95142.81;5104063;28;21076;-65
2023/10/23 02:07:00;;;;;;;24.52;7.35;;;;;;;18.69;77.08;95145.75;5105551;28;20232;-65
2023/10/23 02:09:27;;;;;;;19.85;7.20;;;;;;;18.65;77.05;95136.56;5105919;28;20266;-65
2023/10/23 02:11:54;;;;;;;17.27;7.32;;;;;;;18.56;77.56;95145.66;5106424;28;20592;-64
2023/10/23 02:14:20;;;;;;;27.73;7.22;;;;;;;18.61;77.23;95145.41;5105185;28;20201;-64
2023/10/23 02:16:48;;;;;;;20.75;7.82;;;;;;;18.60;77.38;95151.47;5103352;28;20209;-65
2023/10/23 02:19:15;;;;;;;19.08;6.72;;;;;;;18.48;77.90;95154.81;5103390;28;20258;-66
2023/10/23 02:21:49;;;;;;;14.57;7.63;;;;;;;18.43;78.06;95149.94;5106210;28;20305;-65
2023/10/23 02:24:15;;;;;;;20.67;7.55;;;;;;;18.35;78.48;95153.00;5104510;28;20261;-66
2023/10/23 02:26:42;;;;;;;30.83;7.28;;;;;;;18.42;78.07;95157.75;5103586;28;20205;-65
2023/10/23 02:29:09;;;;;;;16.60;8.07;;;;;;;18.31;78.60;95150.72;5104369;28;20208;-65
2023/10/23 02:31:36;;;;;;;22.25;8.05;;;;;;;18.20;79.06;95142.84;5106392;28;20249;-64
2023/10/23 02:34:05;;;;;;;18.98;9.13;;;;;;;18.30;79.03;95149.91;5104255;28;20201;-65
2023/10/23 02:36:31;;;;;;;21.08;7.03;;;;;;;18.27;79.03;95150.09;5102819;28;20248;-66
2023/10/23 02:38:59;;;;;;;28.63;9.70;;;;;;;18.29;78.76;95150.81;5104947;28;20205;-65
2023/10/23 02:41:25;;;;;;;17.88;7.25;;;;;;;18.31;78.65;95151.53;5104472;28;20653;-66
2023/10/23 02:43:52;;;;;;;24.92;7.93;;;;;;;18.32;78.64;95150.59;5104683;28;20308;-65
2023/10/23 02:46:18;;;;;;;21.48;7.88;;;;;;;18.34;78.55;95150.50;5105899;28;20201;-65
2023/10/23 02:48:45;;;;;;;27.45;8.15;;;;;;;18.27;78.86;95147.50;5103413;28;20302;-65
2023/10/23 02:51:13;;;;;;;19.75;7.63;;;;;;;18.04;79.91;95137.81;5101164;28;20273;-64
2023/10/23 02:53:40;;;;;;;28.83;8.65;;;;;;;17.91;80.54;95147.19;5101343;28;20288;-65
2023/10/23 02:56:11;;;;;;;22.00;8.15;;;;;;;18.11;79.84;95146.78;5102700;28;20670;-64
2023/10/23 02:58:38;;;;;;;24.65;8.60;;;;;;;17.96;80.05;95150.31;5101525;28;20284;-64
2023/10/23 03:01:14;;;;;;;18.30;7.50;;;;;;;17.96;80.14;95151.13;5103278;28;20293;-64
2023/10/23 03:03:41;;;;;;;21.17;7.90;;;;;;;17.84;80.60;95151.03;5103214;28;20196;-64
2023/10/23 03:06:08;;;;;;;23.60;9.05;;;;;;;17.78;80.72;95156.56;5102041;28;20224;-65
2023/10/23 03:08:36;;;;;;;17.67;8.32;;;;;;;17.80;80.74;95154.75;5103633;28;20265;-65
2023/10/23 03:11:02;;;;;;;25.38;8.02;;;;;;;17.83;80.46;95157.09;5103589;28;20197;-65
2023/10/23 03:13:29;;;;;;;23.98;7.72;;;;;;;17.83;80.56;95155.34;5103721;28;20295;-64
2023/10/23 03:15:56;;;;;;;24.17;8.38;;;;;;;17.55;81.55;95150.22;5105290;28;20292;-66
2023/10/23 03:18:23;;;;;;;24.05;9.23;;;;;;;17.70;80.83;95151.88;5104573;28;20463;-65
2023/10/23 03:20:49;;;;;;;23.77;8.07;;;;;;;17.61;81.17;95160.94;5104979;28;20289;-66
2023/10/23 03:23:16;;;;;;;16.25;7.32;;;;;;;17.64;81.10;95162.50;5104857;28;20212;-65
2023/10/23 03:25:44;;;;;;;29.95;7.72;;;;;;;17.67;80.64;95160.59;5104196;28;20258;-65
2023/10/23 03:28:11;;;;;;;24.95;8.52;;;;;;;17.61;81.04;95160.94;5105336;28;20670;-65
2023/10/23 03:30:38;;;;;;;22.23;9.23;;;;;;;17.50;81.35;95160.75;5103327;28;20209;-64
2023/10/23 03:33:05;;;;;;;21.13;7.75;;;;;;;17.43;81.69;95167.16;5105221;28;20697;-65
2023/10/23 03:35:33;;;;;;;18.50;8.15;;;;;;;17.52;81.28;95166.63;5103658;28;20229;-65
2023/10/23 03:38:00;;;;;;;23.17;7.32;;;;;;;17.57;80.94;95163.81;5104463;28;20221;-64
2023/10/23 03:40:27;;;;;;;25.23;8.43;;;;;;;17.57;80.80;95164.59;5102200;28;20206;-65
2023/10/23 03:42:55;;;;;;;26.33;8.63;;;;;;;17.62;80.67;95160.00;5102590;28;20303;-66
2023/10/23 03:45:22;;;;;;;27.98;8.70;;;;;;;17.58;80.36;95158.53;5103103;28;20285;-64
2023/10/23 03:47:49;;;;;;;18.92;8.20;;;;;;;17.65;79.92;95164.19;5102656;28;20634;-65
2023/10/23 03:50:15;;;;;;;29.20;9.07;;;;;;;17.76;79.37;95178.97;5103228;28;20201;-65
2023/10/23 03:52:42;;;;;;;22.70;8.63;;;;;;;17.75;79.00;95172.19;5104775;28;20735;-68
2023/10/23 03:55:09;;;;;;;23.30;7.82;;;;;;;17.75;78.87;95167.03;5104352;28;20257;-64
2023/10/23 03:57:36;;;;;;;23.00;8.90;;;;;;;17.75;78.83;95164.47;5103702;28;20244;-64
2023/10/23 04:00:05;;;;;;;28.33;8.48;;;;;;;17.84;77.71;95161.31;5099365;28;20232;-65
2023/10/23 04:02:31;;;;;;;25.85;9.00;;;;;;;17.72;77.70;95167.22;5103999;28;20208;-65
2023/10/23 04:05:00;;;;;;;24.15;7.75;;;;;;;17.48;78.53;95167.72;5103122;28;20710;-64
2023/10/23 04:07:26;;;;;;;23.25;7.30;;;;;;;17.62;78.12;95157.44;5102134;28;20279;-65
2023/10/23 04:09:53;;;;;;;42.25;17.52;;;;;;;17.53;77.80;95163.16;5104040;28;20224;-65
2023/10/23 04:12:20;;;;;;;32.08;13.20;;;;;;;17.57;78.10;95162.03;5103701;28;20647;-65
2023/10/23 04:14:46;;;;;;;27.73;11.70;;;;;;;17.68;78.11;95172.53;5103148;28;20678;-66
2023/10/23 04:17:14;;;;;;;30.13;9.50;;;;;;;17.60;78.38;95163.59;5103407;28;20229;-66
2023/10/23 04:19:41;;;;;;;30.38;9.73;;;;;;;17.62;78.59;95162.59;5100958;28;20655;-65
2023/10/23 04:22:08;;;;;;;24.40;8.30;;;;;;;17.68;78.61;95167.41;5104112;28;20632;-66
2023/10/23 04:24:34;;;;;;;20.50;8.82;;;;;;;17.66;78.84;95179.50;5099837;28;20201;-66
2023/10/23 04:27:01;;;;;;;19.73;8.10;;;;;;;17.57;79.10;95174.09;5102935;28;20232;-66
2023/10/23 04:29:28;;;;;;;25.15;8.35;;;;;;;17.59;79.09;95165.34;5103852;28;20680;-66
2023/10/23 04:31:54;;;;;;;32.30;10.70;;;;;;;17.56;79.32;95177.56;5103410;28;20255;-65
2023/10/23 04:34:22;;;;;;;43.40;21.38;;;;;;;17.56;79.56;95172.44;5103864;28;20847;-66
2023/10/23 04:36:49;;;;;;;38.67;19.40;;;;;;;17.51;79.30;95182.16;5103341;28;20311;-67
2023/10/23 04:39:16;;;;;;;41.15;10.20;;;;;;;17.52;79.13;95184.63;5102353;28;20209;-65
2023/10/23 04:41:42;;;;;;;27.02;8.85;;;;;;;17.62;78.98;95178.00;5102913;28;20224;-64
2023/10/23 04:44:09;;;;;;;27.67;8.43;;;;;;;17.56;79.11;95188.66;5103342;27;20237;-63
2023/10/23 04:46:36;;;;;;;22.17;9.18;;;;;;;17.58;79.11;95179.09;5102383;28;20621;-65
2023/10/23 04:49:03;;;;;;;31.08;9.82;;;;;;;17.62;78.84;95178.00;5101111;28;20646;-66
2023/10/23 04:51:36;;;;;;;27.20;10.20;;;;;;;17.66;78.83;95176.13;5100687;28;20211;-64
2023/10/23 04:54:03;;;;;;;20.63;9.35;;;;;;;17.66;78.15;95176.94;5101849;28;20698;-65
2023/10/23 04:56:30;;;;;;;88.30;40.30;;;;;;;17.73;77.67;95181.72;5101162;28;20216;-64
2023/10/23 04:58:57;;;;;;;44.85;22.33;;;;;;;17.75;77.53;95182.47;5100768;28;20199;-65
2023/10/23 05:01:24;;;;;;;39.58;15.48;;;;;;;17.70;77.51;95180.16;5100788;28;20220;-64
2023/10/23 05:03:50;;;;;;;22.83;10.55;;;;;;;17.78;77.19;95185.69;5099816;28;20216;-66
2023/10/23 05:06:17;;;;;;;31.42;8.45;;;;;;;17.82;77.08;95188.88;5101045;28;20255;-65
2023/10/23 05:08:45;;;;;;;26.40;9.65;;;;;;;17.98;76.56;95184.47;5101341;28;20262;-65
2023/10/23 05:11:13;;;;;;;23.50;8.77;;;;;;;17.94;76.54;95199.25;5100819;28;20232;-64
2023/10/23 05:13:39;;;;;;;29.88;8.55;;;;;;;17.95;76.37;95205.22;5103009;28;20220;-65
2023/10/23 05:16:07;;;;;;;31.13;9.75;;;;;;;17.94;76.74;95208.72;5100874;28;20261;-64
2023/10/23 05:18:34;;;;;;;29.13;9.38;;;;;;;17.95;76.60;95202.66;5105343;28;20709;-64
2023/10/23 05:21:06;;;;;;;33.03;9.95;;;;;;;17.93;76.97;95204.50;5106554;28;20291;-65
2023/10/23 05:23:33;;;;;;;40.47;9.68;;;;;;;17.82;77.16;95201.72;5106793;28;20258;-66
2023/10/23 05:26:01;;;;;;;18.95;8.20;;;;;;;17.94;76.96;95206.16;5107089;28;20205;-65
2023/10/23 05:28:28;;;;;;;24.08;9.50;;;;;;;18.08;76.47;95211.28;5106390;28;20631;-65
2023/10/23 05:30:54;;;;;;;34.33;10.93;;;;;;;18.09;76.37;95217.25;5106606;28;20311;-66
2023/10/23 05:33:21;;;;;;;42.85;19.00;;;;;;;18.10;76.27;95217.16;5105958;28;20224;-65
2023/10/23 05:35:48;;;;;;;42.47;15.98;;;;;;;18.14;75.87;95216.06;5106195;28;20201;-66
2023/10/23 05:38:15;;;;;;;23.88;9.43;;;;;;;18.14;75.63;95225.50;5102893;27;20289;-65
2023/10/23 05:40:41;;;;;;;32.95;10.18;;;;;;;18.08;76.04;95213.84;5105969;28;20281;-66
2023/10/23 05:43:11;;;;;;;32.35;10.25;;;;;;;18.18;75.93;95202.09;5105569;28;20204;-65
2023/10/23 05:45:37;;;;;;;26.85;9.40;;;;;;;18.11;75.85;95193.09;5104487;28;20237;-67
2023/10/23 05:48:03;;;;;;;19.98;9.38;;;;;;;18.25;75.74;95208.53;5105959;28;20200;-66
2023/10/23 05:50:30;;;;;;;24.42;7.63;;;;;;;18.12;76.32;95225.59;5104721;28;20208;-64
2023/10/23 05:52:56;;;;;;;24.42;8.35;;;;;;;18.40;75.26;95216.19;5104477;28;20232;-67
2023/10/23 05:55:23;;;;;;;23.38;8.88;;;;;;;18.26;75.64;95220.47;5105394;28;20196;-66
2023/10/23 05:57:50;;;;;;;26.40;9.20;;;;;;;18.21;76.36;95217.34;5107193;28;20213;-66
2023/10/23 06:00:19;;;;;;;36.53;10.38;;;;;;;18.42;76.13;95224.66;5103986;28;20725;-66
2023/10/23 06:02:46;;;;;;;18.50;9.02;;;;;;;18.44;75.68;95238.25;5105280;28;20273;-64
2023/10/23 06:05:12;;;;;;;27.83;9.32;;;;;;;18.54;75.18;95229.06;5105476;28;20221;-64
2023/10/23 06:07:39;;;;;;;28.98;9.52;;;;;;;18.66;74.74;95233.47;5105015;28;20670;-66
2023/10/23 06:10:06;;;;;;;27.45;10.10;;;;;;;18.66;74.68;95239.44;5104674;28;20205;-65
2023/10/23 06:12:33;;;;;;;20.10;9.38;;;;;;;18.91;74.01;95236.16;5106016;28;20273;-68
2023/10/23 06:15:00;;;;;;;38.50;12.05;;;;;;;19.02;73.49;95243.19;5105415;28;20754;-68
2023/10/23 06:17:28;;;;;;;32.80;13.30;;;;;;;19.17;72.87;95237.06;5104958;28;20248;-67
2023/10/23 06:19:54;;;;;;;25.02;11.02;;;;;;;19.35;71.95;95242.75;5106427;28;20193;-67
2023/10/23 06:22:21;;;;;;;26.42;11.00;;;;;;;19.42;71.20;95243.19;5105060;28;20209;-68
2023/10/23 06:24:48;;;;;;;42.30;15.35;;;;;;;19.49;71.10;95240.13;5106633;28;20224;-68
2023/10/23 06:27:14;;;;;;;34.35;12.32;;;;;;;19.42;71.05;95243.19;5103634;27;20228;-65
2023/10/23 06:29:41;;;;;;;30.15;11.48;;;;;;;19.39;71.19;95254.53;5105622;28;20197;-65
2023/10/23 06:32:08;;;;;;;44.05;10.05;;;;;;;19.36;71.37;95255.53;5104664;28;20261;-66
2023/10/23 06:34:36;;;;;;;36.78;10.48;;;;;;;19.55;70.70;95252.63;5104843;28;20253;-66
2023/10/23 06:37:03;;;;;;;31.23;11.15;;;;;;;19.54;70.44;95258.72;5103244;28;20221;-66
2023/10/23 06:39:30;;;;;;;35.40;10.35;;;;;;;19.56;70.20;95259.44;5104929;28;21248;-65
2023/10/23 06:41:56;;;;;;;27.77;9.73;;;;;;;19.63;70.07;95254.69;5102368;28;20598;-67
2023/10/23 06:44:23;;;;;;;24.33;10.10;;;;;;;19.67;70.03;95258.75;5105321;28;20714;-65
2023/10/23 06:46:49;;;;;;;29.50;9.95;;;;;;;19.72;70.25;95261.84;5105513;28;20232;-65
2023/10/23 06:49:16;;;;;;;31.05;10.57;;;;;;;19.86;69.66;95258.31;5105333;28;20224;-68
2023/10/23 06:51:44;;;;;;;37.65;10.40;;;;;;;20.01;69.57;95263.31;5105267;28;20254;-65
2023/10/23 06:54:11;;;;;;;38.45;10.13;;;;;;;20.00;69.83;95265.97;5104374;28;20246;-67
2023/10/23 06:56:38;;;;;;;34.83;10.02;;;;;;;20.13;69.52;95273.72;5103375;28;20208;-65
2023/10/23 06:59:04;;;;;;;31.60;11.45;;;;;;;20.30;69.10;95278.53;5105855;28;20309;-66
2023/10/23 07:01:31;;;;;;;28.95;14.63;;;;;;;20.43;68.75;95276.00;5104213;28;20679;-67
2023/10/23 07:03:58;;;;;;;35.78;14.20;;;;;;;20.58;68.33;95277.50;5104040;28;20221;-65
2023/10/23 07:06:24;;;;;;;31.90;10.10;;;;;;;20.55;67.99;95277.72;5105798;28;20197;-66
2023/10/23 07:08:52;;;;;;;39.55;12.10;;;;;;;20.72;67.60;95279.97;5103967;28;20197;-66
2023/10/23 07:11:19;;;;;;;31.20;11.45;;;;;;;20.63;67.06;95286.59;5104922;27;20212;-65
2023/10/23 07:13:46;;;;;;;34.95;11.13;;;;;;;20.60;67.53;95283.38;5105208;28;20205;-65
2023/10/23 07:16:12;;;;;;;29.15;10.65;;;;;;;20.52;67.48;95280.53;5102844;28;20227;-67
2023/10/23 07:18:39;;;;;;;33.88;11.30;;;;;;;20.57;67.34;95275.84;5105859;28;20248;-66
2023/10/23 07:21:06;;;;;;;33.67;12.32;;;;;;;20.58;66.55;95277.50;5102586;28;20281;-68
2023/10/23 07:23:32;;;;;;;29.98;10.90;;;;;;;20.60;66.75;95281.63;5104634;28;20209;-64
2023/10/23 07:26:07;;;;;;;35.05;11.55;;;;;;;20.99;65.34;95283.19;5104729;28;20266;-65
2023/10/23 07:28:34;;;;;;;31.58;10.20;;;;;;;20.93;65.17;95278.44;5104378;28;20897;-66
2023/10/23 07:31:03;;;;;;;31.48;11.73;;;;;;;21.08;64.84;95279.09;5102976;28;20676;-66
2023/10/23 07:33:30;;;;;;;39.40;11.32;;;;;;;21.18;64.32;95281.88;5104669;28;20220;-66
2023/10/23 07:36:01;;;;;;;49.20;17.30;;;;;;;21.15;64.40;95269.16;5104947;28;20696;-64
2023/10/23 07:38:28;;;;;;;31.17;15.45;;;;;;;21.11;63.89;95250.47;5103400;28;20253;-65
2023/10/23 07:40:54;;;;;;;28.10;11.25;;;;;;;21.21;64.11;95266.19;5103991;28;20236;-65
2023/10/23 07:43:22;;;;;;;30.15;11.43;;;;;;;21.31;64.01;95267.16;5103741;28;20237;-65
2023/10/23 07:45:49;;;;;;;28.35;10.13;;;;;;;21.38;63.93;95261.44;5102658;28;20252;-65
2023/10/23 07:48:16;;;;;;;42.33;14.23;;;;;;;21.42;63.48;95256.03;5103947;28;20201;-66
2023/10/23 07:50:43;;;;;;;48.30;18.50;;;;;;;21.60;63.14;95263.25;5103767;28;20291;-65
2023/10/23 07:53:10;;;;;;;44.65;17.98;;;;;;;21.75;62.74;95265.66;5103318;28;20706;-68
2023/10/23 07:55:37;;;;;;;33.67;12.88;;;;;;;21.81;62.48;95265.19;5102930;28;20201;-65
2023/10/23 07:58:04;;;;;;;38.88;11.20;;;;;;;21.76;62.55;95267.31;5103420;28;20216;-66
2023/10/23 08:00:31;;;;;;;27.75;9.65;;;;;;;21.60;63.35;95262.44;5095781;28;20517;-65
2023/10/23 08:02:58;;;;;;;37.80;9.70;;;;;;;21.58;63.42;95266.91;5098541;28;20208;-67
2023/10/23 08:05:24;;;;;;;25.88;9.77;;;;;;;21.61;63.26;95259.75;5103190;28;20193;-67
2023/10/23 08:07:51;;;;;;;26.92;8.70;;;;;;;21.77;63.14;95259.44;5104080;27;20627;-69
2023/10/23 08:10:18;;;;;;;27.92;9.27;;;;;;;22.00;62.27;95274.09;5101615;28;20639;-66
2023/10/23 08:12:46;;;;;;;31.38;10.05;;;;;;;22.18;61.52;95258.94;5101316;28;20299;-65
2023/10/23 08:15:12;;;;;;;29.58;10.73;;;;;;;22.36;60.99;95267.06;5100478;28;20200;-65
2023/10/23 08:17:41;;;;;;;33.08;9.77;;;;;;;22.24;60.91;95266.25;5099527;28;20722;-65
2023/10/23 08:20:09;;;;;;;34.50;9.43;;;;;;;22.41;60.69;95259.75;5101027;28;20262;-65
2023/10/23 08:22:36;;;;;;;24.85;9.50;;;;;;;22.64;59.75;95260.56;5096876;28;20201;-65
2023/10/23 08:25:03;;;;;;;35.63;9.68;;;;;;;22.75;59.23;95263.16;5103841;28;20296;-66
2023/10/23 08:27:31;;;;;;;36.55;10.23;;;;;;;22.99;58.22;95261.25;5104705;28;20251;-65
2023/10/23 08:29:58;;;;;;;41.22;11.48;;;;;;;23.48;57.52;95267.69;5103528;28;20691;-65
2023/10/23 08:32:24;;;;;;;33.03;10.15;;;;;;;23.65;55.72;95269.75;5103784;28;20221;-66
2023/10/23 08:34:54;;;;;;;28.55;8.93;;;;;;;23.20;56.75;95263.91;5103568;28;20682;-66
2023/10/23 08:37:21;;;;;;;46.78;9.43;;;;;;;22.52;58.60;95251.19;5103940;28;20566;-67
2023/10/23 08:39:48;;;;;;;39.95;13.15;;;;;;;22.33;59.37;95268.09;5100785;28;20593;-66
2023/10/23 08:42:14;;;;;;;30.23;9.85;;;;;;;21.96;60.10;95235.59;5100911;28;20288;-66
2023/10/23 08:44:42;;;;;;;31.27;11.20;;;;;;;22.06;60.35;95265.03;5101633;28;20609;-65
2023/10/23 08:47:08;;;;;;;36.25;11.70;;;;;;;22.45;59.16;95253.41;5104494;28;20270;-66
2023/10/23 08:49:35;;;;;;;37.70;10.60;;;;;;;22.92;57.44;95246.31;5102188;28;20739;-64
2023/10/23 08:52:08;;;;;;;35.38;11.45;;;;;;;23.53;55.90;95250.00;5101158;28;20197;-67
2023/10/23 08:54:35;;;;;;;27.95;9.73;;;;;;;24.11;54.62;95257.31;5101293;28;20225;-66
2023/10/23 08:57:02;;;;;;;40.63;13.60;;;;;;;24.70;53.20;95252.28;5102014;28;20496;-64
2023/10/23 08:59:29;;;;;;;37.88;11.32;;;;;;;25.20;51.27;95228.88;5099355;28;20220;-66
2023/10/23 09:01:56;;;;;;;34.42;9.82;;;;;;;25.64;50.30;95245.72;5101073;28;20297;-67
2023/10/23 09:04:23;;;;;;;34.88;9.07;;;;;;;25.48;50.77;95245.44;5101941;28;20448;-66
2023/10/23 09:06:52;;;;;;;24.35;8.32;;;;;;;25.63;50.68;95246.69;5102900;28;20254;-65
2023/10/23 09:09:21;;;;;;;28.02;8.57;;;;;;;25.86;50.83;95247.19;5103090;28;20201;-66
2023/10/23 09:11:49;;;;;;;23.23;7.10;;;;;;;26.23;50.00;95245.44;5102397;28;20219;-64
2023/10/23 09:14:24;;;;;;;27.73;8.63;;;;;;;26.44;48.69;95242.69;5102568;28;20202;-65
2023/10/23 09:16:52;;;;;;;19.38;7.50;;;;;;;26.25;49.61;95238.31;5103423;28;20253;-68
2023/10/23 09:19:25;;;;;;;22.67;8.27;;;;;;;26.17;49.63;95229.59;5103147;28;20247;-66
2023/10/23 09:21:54;;;;;;;25.38;7.75;;;;;;;26.01;50.00;95230.16;5104843;28;20207;-66
2023/10/23 09:24:22;;;;;;;26.92;8.75;;;;;;;26.07;50.38;95234.81;5103273;28;20204;-66
2023/10/23 09:26:50;;;;;;;24.70;8.00;;;;;;;26.46;49.31;95230.31;5102660;28;20214;-66
2023/10/23 09:29:17;;;;;;;24.45;8.20;;;;;;;26.76;48.66;95231.81;5102680;28;20660;-66
2023/10/23 09:31:44;;;;;;;24.38;7.32;;;;;;;27.23;47.52;95219.44;5103494;28;20223;-65
2023/10/23 09:34:12;;;;;;;31.02;7.75;;;;;;;27.42;47.19;95228.94;5104193;28;20213;-65
2023/10/23 09:36:39;;;;;;;27.65;7.32;;;;;;;27.28;46.89;95224.22;5103358;28;20284;-67
2023/10/23 09:39:06;;;;;;;31.20;7.90;;;;;;;26.84;47.42;95224.09;5103830;28;20253;-69
2023/10/23 09:41:35;;;;;;;29.38;8.20;;;;;;;26.54;48.52;95219.16;5102535;28;20205;-66
2023/10/23 09:44:05;;;;;;;32.35;8.02;;;;;;;26.21;49.39;95215.31;5104056;28;20224;-64
2023/10/23 09:46:32;;;;;;;23.13;6.90;;;;;;;26.19;49.55;95217.25;5104147;28;20650;-67
2023/10/23 09:49:02;;;;;;;27.27;7.53;;;;;;;26.35;49.40;95213.09;5102979;28;20193;-66
2023/10/23 09:51:32;;;;;;;31.60;8.20;;;;;;;26.63;48.74;95207.88;5102320;28;20304;-67
2023/10/23 09:54:00;;;;;;;35.90;7.93;;;;;;;26.84;48.33;95205.81;5101408;28;20690;-65
2023/10/23 09:56:31;;;;;;;35.83;8.95;;;;;;;26.83;48.02;95206.78;5099304;28;20205;-65
2023/10/23 09:59:04;;;;;;;28.15;8.73;;;;;;;26.86;47.87;95206.50;5101540;28;20217;-67
2023/10/23 10:01:36;;;;;;;26.35;7.72;;;;;;;26.86;48.23;95203.06;5102069;28;20215;-65
2023/10/23 10:04:12;;;;;;;35.45;8.38;;;;;;;27.14;47.73;95203.88;5103628;28;20200;-66
2023/10/23 10:06:42;;;;;;;31.38;8.15;;;;;;;27.37;46.90;95197.22;5106611;28;20228;-66
2023/10/23 10:09:12;;;;;;;27.20;7.47;;;;;;;27.40;46.51;95196.94;5106410;28;20254;-66
2023/10/23 10:11:42;;;;;;;23.80;7.53;;;;;;;27.42;46.49;95192.38;5107783;28;20201;-66
2023/10/23 10:14:11;;;;;;;23.23;8.23;;;;;;;27.44;46.35;95187.84;5106527;28;20201;-67
2023/10/23 10:16:39;;;;;;;23.15;7.70;;;;;;;27.18;46.35;95179.13;5106948;28;20262;-67
2023/10/23 10:19:07;;;;;;;22.75;8.10;;;;;;;26.77;47.41;95157.84;5107288;28;20217;-68
2023/10/23 10:21:51;;;;;;;34.05;8.80;;;;;;;26.53;47.63;95173.22;5107514;28;20285;-66
2023/10/23 10:24:20;;;;;;;20.52;7.90;;;;;;;26.18;48.83;95174.75;5105644;28;20196;-65
2023/10/23 10:26:47;;;;;;;24.48;7.80;;;;;;;25.87;49.49;95170.72;5107134;28;20201;-67
2023/10/23 10:29:15;;;;;;;29.67;8.07;;;;;;;25.63;50.24;95174.63;5105747;28;20201;-66
2023/10/23 10:32:06;;;;;;;30.27;8.02;;;;;;;25.61;50.28;95160.91;5107240;28;20240;-66
2023/10/23 10:34:34;;;;;;;22.83;8.65;;;;;;;25.61;50.53;95171.31;5107288;28;20204;-66
2023/10/23 10:37:04;;;;;;;30.45;8.20;;;;;;;25.66;50.81;95163.13;5105670;28;20245;-66
2023/10/23 10:40:08;;;;;;;25.95;7.70;;;;;;;25.81;50.14;95161.69;5106315;28;20231;-66
2023/10/23 10:42:42;;;;;;;32.70;7.45;;;;;;;26.06;49.17;95158.47;5106052;28;20232;-67
2023/10/23 10:45:14;;;;;;;25.65;6.90;;;;;;;26.19;49.12;95155.53;5107261;28;20490;-66
2023/10/23 10:47:44;;;;;;;33.35;7.78;;;;;;;26.18;48.91;95151.28;5107538;28;20193;-66
2023/10/23 10:50:11;;;;;;;24.35;7.07;;;;;;;26.28;48.73;95149.44;5105642;28;20742;-65
2023/10/23 10:52:40;;;;;;;21.77;7.10;;;;;;;26.62;48.48;95146.28;5106130;28;20236;-64
2023/10/23 10:55:08;;;;;;;27.40;7.57;;;;;;;26.96;46.90;95139.50;5104630;27;20201;-67
2023/10/23 10:57:37;;;;;;;39.53;8.52;;;;;;;26.93;46.94;95129.31;5104602;28;20225;-67
2023/10/23 11:00:05;;;;;;;31.08;7.85;;;;;;;26.89;47.36;95127.16;5103222;28;20452;-68
2023/10/23 11:02:33;;;;;;;34.22;9.57;;;;;;;26.80;47.29;95121.03;5105098;28;20205;-65
2023/10/23 11:05:07;;;;;;;36.45;9.05;;;;;;;26.82;47.40;95132.13;5104496;28;20285;-65
2023/10/23 11:07:34;;;;;;;30.85;8.23;;;;;;;26.95;46.95;95130.03;5103430;28;20205;-65
2023/10/23 11:10:01;;;;;;;34.05;7.13;;;;;;;26.83;45.48;95123.34;5103467;28;20678;-65
2023/10/23 11:12:27;;;;;;;28.17;6.93;;;;;;;26.79;43.90;95116.78;5104235;28;20197;-65
2023/10/23 11:14:54;;;;;;;29.05;7.43;;;;;;;26.71;43.19;95116.72;5105850;28;20201;-67
2023/10/23 11:17:21;;;;;;;28.25;5.95;;;;;;;26.64;42.88;95113.06;5103527;28;20200;-64
2023/10/23 11:19:49;;;;;;;26.73;6.55;;;;;;;26.54;42.90;95113.13;5105772;28;20714;-67
2023/10/23 11:22:17;;;;;;;26.70;6.55;;;;;;;26.46;42.97;95109.63;5105687;28;20213;-66
2023/10/23 11:24:44;;;;;;;19.27;5.50;;;;;;;26.49;42.55;95101.50;5106892;28;20265;-65
2023/10/23 11:27:11;;;;;;;22.70;5.63;;;;;;;26.70;41.56;95105.47;5106501;28;20228;-66